createdAt,value
2023-03-03T00:00:11.098Z,23.63
2023-03-03T00:02:43.859Z,20.87
2023-03-03T00:05:18.459Z,21.73
2023-03-03T00:07:52.670Z,22.13
2023-03-03T00:10:27.092Z,21.47
2023-03-03T00:13:00.305Z,21.83
2023-03-03T00:15:33.825Z,21.27
2023-03-03T00:18:17.209Z,18.17
2023-03-03T00:20:50.371Z,16.17
2023-03-03T00:23:31.069Z,21.87
2023-03-03T00:26:07.840Z,20.17
2023-03-03T00:28:45.529Z,20.90
2023-03-03T00:31:22.628Z,20.13
2023-03-03T00:33:56.465Z,19.43
2023-03-03T00:36:31.961Z,23.50
2023-03-03T00:39:19.312Z,21.83
2023-03-03T00:41:51.960Z,20.57
2023-03-03T00:44:40.124Z,19.43
2023-03-03T00:47:33.679Z,20.90
2023-03-03T00:50:24.367Z,21.03
2023-03-03T00:53:01.797Z,21.40
2023-03-03T00:55:37.721Z,18.30
2023-03-03T00:58:10.741Z,21.07
2023-03-03T01:00:43.611Z,22.00
2023-03-03T01:03:17.521Z,22.27
2023-03-03T01:05:50.482Z,19.27
2023-03-03T01:08:29.243Z,20.97
2023-03-03T01:11:08.581Z,19.07
2023-03-03T01:13:42.654Z,19.83
2023-03-03T01:16:15.451Z,20.30
2023-03-03T01:18:48.474Z,22.17
2023-03-03T01:21:21.216Z,19.33
2023-03-03T01:23:53.943Z,19.13
2023-03-03T01:26:28.308Z,24.13
2023-03-03T01:29:01.041Z,25.00
2023-03-03T01:31:33.946Z,26.50
2023-03-03T01:34:07.155Z,25.90
2023-03-03T01:36:39.978Z,24.93
2023-03-03T01:39:12.883Z,21.67
2023-03-03T01:41:46.958Z,22.77
2023-03-03T01:44:19.906Z,24.87
2023-03-03T01:46:54.841Z,22.77
2023-03-03T01:49:30.201Z,22.03
2023-03-03T01:52:04.785Z,20.90
2023-03-03T01:54:40.179Z,24.73
2023-03-03T01:57:16.200Z,24.33
2023-03-03T01:59:50.626Z,21.77
2023-03-03T02:02:23.526Z,21.57
2023-03-03T02:04:56.183Z,22.13
2023-03-03T02:07:29.941Z,21.13
2023-03-03T02:10:09.525Z,20.33
2023-03-03T02:12:44.789Z,20.67
2023-03-03T02:15:19.328Z,20.57
2023-03-03T02:17:54.312Z,20.63
2023-03-03T02:20:33.152Z,21.37
2023-03-03T02:26:49.650Z,20.47
2023-03-03T02:29:22.321Z,23.93
2023-03-03T02:31:58.327Z,21.63
2023-03-03T02:34:31.096Z,22.27
2023-03-03T02:37:04.629Z,22.27
2023-03-03T02:39:37.288Z,23.43
2023-03-03T02:42:13.797Z,19.87
2023-03-03T02:44:46.630Z,22.40
2023-03-03T02:47:19.315Z,23.23
2023-03-03T02:50:00.726Z,22.40
2023-03-03T02:52:33.522Z,24.00
2023-03-03T02:55:06.757Z,20.73
2023-03-03T02:57:40.809Z,19.77
2023-03-03T03:00:13.743Z,23.20
2023-03-03T03:02:46.479Z,22.40
2023-03-03T03:08:36.005Z,23.03
2023-03-03T03:11:08.861Z,23.47
2023-03-03T03:13:43.007Z,24.20
2023-03-03T03:16:15.855Z,23.23
2023-03-03T03:18:50.325Z,24.80
2023-03-03T03:21:23.019Z,25.47
2023-03-03T03:23:55.819Z,24.07
2023-03-03T03:26:31.556Z,24.33
2023-03-03T03:29:08.478Z,24.97
2023-03-03T03:31:43.315Z,21.23
2023-03-03T03:34:16.091Z,22.37
2023-03-03T03:36:48.907Z,22.90
2023-03-03T03:39:21.665Z,26.57
2023-03-03T03:41:54.369Z,22.03
2023-03-03T03:44:30.785Z,22.03
2023-03-03T03:47:04.073Z,22.20
2023-03-03T03:49:37.052Z,22.67
2023-03-03T03:52:12.446Z,30.27
2023-03-03T03:54:45.365Z,22.20
2023-03-03T03:57:18.052Z,20.30
2023-03-03T03:59:52.212Z,21.03
2023-03-03T04:02:27.822Z,22.60
2023-03-03T04:05:00.805Z,22.77
2023-03-03T04:07:33.594Z,22.50
2023-03-03T04:10:06.918Z,24.53
2023-03-03T04:12:39.656Z,23.90
2023-03-03T04:15:17.354Z,21.93
2023-03-03T04:17:50.096Z,18.93
2023-03-03T04:20:22.916Z,22.33
2023-03-03T04:22:56.798Z,21.90
2023-03-03T04:25:29.585Z,19.57
2023-03-03T04:28:05.638Z,23.37
2023-03-03T04:30:39.990Z,22.30
2023-03-03T04:33:12.784Z,25.90
2023-03-03T04:35:45.778Z,23.93
2023-03-03T04:38:18.636Z,29.73
2023-03-03T04:40:51.533Z,36.20
2023-03-03T04:43:24.236Z,17.67
2023-03-03T04:46:04.450Z,17.13
2023-03-03T04:48:38.390Z,21.77
2023-03-03T04:51:11.403Z,19.50
2023-03-03T04:53:44.206Z,18.23
2023-03-03T04:56:16.930Z,17.60
2023-03-03T04:58:49.651Z,17.90
2023-03-03T05:01:24.977Z,19.90
2023-03-03T05:04:00.847Z,19.13
2023-03-03T05:06:33.540Z,21.70
2023-03-03T05:09:06.306Z,16.33
2023-03-03T05:11:39.319Z,20.67
2023-03-03T05:14:12.502Z,15.37
2023-03-03T05:16:49.929Z,21.37
2023-03-03T05:19:22.717Z,21.03
2023-03-03T05:21:55.517Z,24.77
2023-03-03T05:24:28.390Z,23.07
2023-03-03T05:27:01.219Z,17.30
2023-03-03T05:29:33.946Z,23.47
2023-03-03T05:32:08.291Z,22.27
2023-03-03T05:34:47.043Z,23.63
2023-03-03T05:37:19.690Z,23.67
2023-03-03T05:39:55.299Z,20.13
2023-03-03T05:42:28.241Z,10.83
2023-03-03T05:45:00.912Z,21.77
2023-03-03T05:47:34.977Z,20.37
2023-03-03T05:50:07.982Z,7.00
2023-03-03T05:52:41.017Z,21.27
2023-03-03T05:55:13.914Z,19.43
2023-03-03T05:57:47.970Z,16.03
2023-03-03T06:00:22.939Z,20.10
2023-03-03T06:02:57.072Z,20.30
2023-03-03T06:05:29.851Z,16.07
2023-03-03T06:08:02.918Z,14.40
2023-03-03T06:10:35.812Z,13.07
2023-03-03T06:13:11.353Z,22.30
2023-03-03T06:15:44.199Z,25.77
2023-03-03T06:18:18.616Z,15.17
2023-03-03T06:20:52.694Z,16.87
2023-03-03T06:23:25.480Z,16.20
2023-03-03T06:25:58.513Z,13.90
2023-03-03T06:28:31.593Z,16.07
2023-03-03T06:31:04.726Z,16.40
2023-03-03T06:33:38.982Z,18.00
2023-03-03T06:36:12.285Z,16.43
2023-03-03T06:38:53.098Z,14.70
2023-03-03T06:41:25.850Z,14.30
2023-03-03T06:44:00.264Z,18.23
2023-03-03T06:46:33.319Z,10.10
2023-03-03T06:49:07.533Z,14.33
2023-03-03T06:51:41.130Z,14.50
2023-03-03T06:54:14.725Z,13.07
2023-03-03T06:56:48.231Z,22.53
2023-03-03T06:59:21.962Z,18.67
2023-03-03T07:01:55.753Z,16.40
2023-03-03T07:04:31.030Z,18.10
2023-03-03T07:07:12.038Z,18.70
2023-03-03T07:09:45.893Z,20.40
2023-03-03T07:12:19.602Z,19.43
2023-03-03T07:14:55.861Z,20.90
2023-03-03T07:17:28.673Z,17.87
2023-03-03T07:20:02.791Z,18.83
2023-03-03T07:22:35.546Z,20.10
2023-03-03T07:25:20.423Z,21.40
2023-03-03T07:27:54.225Z,18.37
2023-03-03T07:30:28.289Z,18.90
2023-03-03T07:33:01.252Z,16.97
2023-03-03T07:35:39.795Z,20.63
2023-03-03T07:38:18.278Z,19.30
2023-03-03T07:40:52.351Z,16.33
2023-03-03T07:43:31.642Z,16.83
2023-03-03T07:46:19.234Z,14.77
2023-03-03T07:48:52.040Z,13.50
2023-03-03T07:51:27.699Z,15.93
2023-03-03T07:54:12.471Z,13.43
2023-03-03T07:56:45.686Z,21.40
2023-03-03T07:59:24.382Z,13.73
2023-03-03T08:01:58.850Z,13.70
2023-03-03T08:04:40.193Z,14.93
2023-03-03T08:07:17.597Z,18.47
2023-03-03T08:09:51.931Z,19.37
2023-03-03T08:12:47.394Z,14.33
2023-03-03T08:15:24.155Z,16.43
2023-03-03T08:17:57.349Z,18.83
2023-03-03T08:20:51.026Z,13.80
2023-03-03T08:23:27.204Z,17.00
2023-03-03T08:25:59.995Z,16.40
2023-03-03T08:28:32.936Z,17.47
2023-03-03T08:31:18.408Z,17.47
2023-03-03T08:33:55.997Z,16.07
2023-03-03T08:36:28.650Z,15.33
2023-03-03T08:39:02.987Z,12.13
2023-03-03T08:41:35.758Z,12.13
2023-03-03T08:44:08.845Z,15.20
2023-03-03T08:46:41.566Z,14.83
2023-03-03T08:49:14.426Z,13.37
2023-03-03T08:51:47.192Z,15.77
2023-03-03T08:54:21.389Z,12.97
2023-03-03T08:56:54.102Z,13.43
2023-03-03T08:59:27.142Z,12.57
2023-03-03T09:01:59.932Z,10.77
2023-03-03T09:04:37.110Z,12.20
2023-03-03T09:07:09.890Z,12.10
2023-03-03T09:09:43.993Z,12.47
2023-03-03T09:12:19.952Z,12.10
2023-03-03T09:14:55.846Z,10.83
2023-03-03T09:17:31.582Z,13.57
2023-03-03T09:20:18.518Z,12.77
2023-03-03T09:22:51.547Z,12.20
2023-03-03T09:25:31.760Z,13.20
2023-03-03T09:28:05.013Z,12.37
2023-03-03T09:30:39.444Z,11.37
2023-03-03T09:33:24.695Z,12.87
2023-03-03T09:36:04.924Z,14.57
2023-03-03T09:38:41.292Z,14.33
2023-03-03T09:41:32.609Z,12.23
2023-03-03T09:44:13.992Z,12.13
2023-03-03T09:46:52.973Z,13.60
2023-03-03T09:49:29.030Z,11.13
2023-03-03T09:52:08.596Z,10.80
2023-03-03T09:54:50.172Z,12.70
2023-03-03T09:57:25.990Z,13.80
2023-03-03T10:00:06.870Z,7.27
2023-03-03T10:02:47.543Z,16.33
2023-03-03T10:05:22.632Z,10.53
2023-03-03T10:08:00.487Z,12.37
2023-03-03T10:10:40.164Z,14.40
2023-03-03T10:13:21.002Z,11.80
2023-03-03T10:16:00.158Z,13.03
2023-03-03T10:18:41.983Z,13.20
2023-03-03T10:21:21.414Z,12.23
2023-03-03T10:23:58.864Z,15.23
2023-03-03T10:26:45.708Z,13.63
2023-03-03T10:29:29.747Z,15.93
2023-03-03T10:32:12.625Z,13.87
2023-03-03T10:35:02.290Z,11.83
2023-03-03T10:37:49.950Z,13.90
2023-03-03T10:40:30.066Z,12.43
2023-03-03T10:43:30.847Z,15.37
2023-03-03T10:46:37.237Z,15.20
2023-03-03T10:49:23.025Z,17.37
2023-03-03T10:52:12.644Z,22.00
2023-03-03T10:54:51.976Z,19.80
2023-03-03T10:57:27.468Z,16.13
2023-03-03T11:00:09.302Z,17.27
2023-03-03T11:02:48.589Z,16.30
2023-03-03T11:05:30.321Z,18.63
2023-03-03T11:08:12.601Z,19.73
2023-03-03T11:10:52.284Z,18.10
2023-03-03T11:13:29.316Z,14.27
2023-03-03T11:16:15.372Z,21.20
2023-03-03T11:18:53.699Z,17.97
2023-03-03T11:21:30.346Z,22.23
2023-03-03T11:24:14.363Z,23.43
2023-03-03T11:26:51.450Z,20.13
2023-03-03T11:29:34.827Z,18.60
2023-03-03T11:32:12.705Z,20.83
2023-03-03T11:34:52.713Z,20.23
2023-03-03T11:37:29.997Z,18.37
2023-03-03T11:40:04.223Z,18.23
2023-03-03T11:42:41.795Z,20.57
2023-03-03T11:45:16.733Z,23.17
2023-03-03T11:47:56.855Z,22.33
2023-03-03T11:50:35.674Z,23.93
2023-03-03T11:53:16.879Z,21.00
2023-03-03T11:55:53.518Z,19.07
2023-03-03T11:58:28.660Z,16.93
2023-03-03T12:01:05.512Z,16.13
2023-03-03T12:03:41.580Z,21.23
2023-03-03T12:06:20.802Z,24.47
2023-03-03T12:09:11.760Z,19.70
2023-03-03T12:11:48.451Z,19.17
2023-03-03T12:14:33.172Z,29.40
2023-03-03T12:17:13.174Z,33.00
2023-03-03T12:19:52.669Z,18.93
2023-03-03T12:22:34.343Z,19.40
2023-03-03T12:25:25.025Z,17.00
2023-03-03T12:28:01.897Z,19.07
2023-03-03T12:30:41.607Z,20.10
2023-03-03T12:33:19.415Z,19.50
2023-03-03T12:35:55.790Z,19.47
2023-03-03T12:38:36.135Z,16.67
2023-03-03T12:41:12.937Z,19.53
2023-03-03T12:43:56.211Z,23.87
2023-03-03T12:46:35.632Z,20.40
2023-03-03T12:49:08.386Z,24.30
2023-03-03T12:51:49.334Z,18.33
2023-03-03T12:54:40.151Z,20.30
2023-03-03T12:57:20.406Z,25.10
2023-03-03T13:00:02.604Z,21.87
2023-03-03T13:02:42.524Z,23.07
2023-03-03T13:05:19.735Z,21.77
2023-03-03T13:07:57.563Z,19.30
2023-03-03T13:10:36.160Z,19.17
2023-03-03T13:13:13.027Z,21.13
2023-03-03T13:15:55.819Z,23.77
2023-03-03T13:18:48.700Z,21.10
2023-03-03T13:21:25.318Z,22.27
2023-03-03T13:24:03.296Z,19.50
2023-03-03T13:26:38.719Z,22.23
2023-03-03T13:29:16.292Z,19.93
2023-03-03T13:31:51.705Z,23.40
2023-03-03T13:34:28.986Z,22.00
2023-03-03T13:37:13.996Z,22.23
2023-03-03T13:39:52.846Z,20.07
2023-03-03T13:42:27.932Z,18.37
2023-03-03T13:45:02.256Z,19.83
2023-03-03T13:47:39.886Z,23.77
2023-03-03T13:50:20.103Z,16.33
2023-03-03T13:53:01.839Z,15.23
2023-03-03T13:55:36.773Z,20.10
2023-03-03T13:58:14.473Z,24.57
2023-03-03T14:00:58.578Z,23.03
2023-03-03T14:03:41.940Z,22.03
2023-03-03T14:06:19.246Z,18.97
2023-03-03T14:08:56.957Z,22.20
2023-03-03T14:11:31.160Z,12.77
2023-03-03T14:14:09.469Z,18.53
2023-03-03T14:16:51.320Z,19.63
2023-03-03T14:19:33.199Z,18.83
2023-03-03T14:22:08.148Z,19.13
2023-03-03T14:25:00.211Z,15.50
2023-03-03T14:27:37.432Z,20.37
2023-03-03T14:30:28.501Z,28.37
2023-03-03T14:33:02.516Z,21.67
2023-03-03T14:35:37.842Z,19.00
2023-03-03T14:38:14.255Z,19.20
2023-03-03T14:40:47.727Z,19.73
2023-03-03T14:43:23.079Z,19.43
2023-03-03T14:45:56.558Z,24.67
2023-03-03T14:48:32.356Z,16.07
2023-03-03T14:51:24.330Z,23.80
2023-03-03T14:53:57.961Z,20.10
2023-03-03T14:56:31.656Z,18.83
2023-03-03T14:59:18.818Z,20.43
2023-03-03T15:01:57.849Z,20.67
2023-03-03T15:04:31.939Z,22.43
2023-03-03T15:07:21.674Z,20.97
2023-03-03T15:09:54.773Z,20.83
2023-03-03T15:12:36.158Z,21.20
2023-03-03T15:15:17.950Z,19.73
2023-03-03T15:17:58.882Z,22.03
2023-03-03T15:20:36.745Z,21.67
2023-03-03T15:23:18.364Z,25.50
2023-03-03T15:25:58.812Z,21.63
2023-03-03T15:28:39.838Z,20.30
2023-03-03T15:31:20.514Z,19.07
2023-03-03T15:34:01.413Z,16.13
2023-03-03T15:36:40.362Z,19.80
2023-03-03T15:39:18.243Z,24.13
2023-03-03T15:41:55.206Z,22.47
2023-03-03T15:44:32.926Z,20.43
2023-03-03T15:47:22.398Z,21.73
2023-03-03T15:50:05.737Z,21.80
2023-03-03T15:52:53.095Z,16.30
2023-03-03T15:55:33.298Z,21.73
2023-03-03T15:58:19.540Z,28.43
2023-03-03T16:00:58.043Z,23.50
2023-03-03T16:03:35.149Z,23.73
2023-03-03T16:06:12.552Z,24.83
2023-03-03T16:09:08.171Z,21.23
2023-03-03T16:11:46.020Z,21.43
2023-03-03T16:14:31.208Z,20.03
2023-03-03T16:17:10.592Z,22.00
2023-03-03T16:19:49.548Z,20.17
2023-03-03T16:22:29.864Z,22.03
2023-03-03T16:25:08.284Z,19.67
2023-03-03T16:27:44.646Z,18.50
2023-03-03T16:30:26.568Z,18.27
2023-03-03T16:33:07.313Z,18.87
2023-03-03T16:35:43.519Z,20.30
2023-03-03T16:38:20.411Z,17.97
2023-03-03T16:40:55.192Z,21.40
2023-03-03T16:43:33.266Z,21.90
2023-03-03T16:46:12.611Z,20.07
2023-03-03T16:48:49.370Z,21.17
2023-03-03T16:51:27.126Z,20.93
2023-03-03T16:54:04.623Z,19.47
2023-03-03T16:56:40.383Z,18.93
2023-03-03T16:59:32.051Z,20.43
2023-03-03T17:02:13.524Z,20.97
2023-03-03T17:04:48.227Z,17.33
2023-03-03T17:07:29.594Z,21.93
2023-03-03T17:10:23.187Z,22.40
2023-03-03T17:13:10.252Z,22.93
2023-03-03T17:15:50.496Z,21.60
2023-03-03T17:18:30.504Z,21.97
2023-03-03T17:21:03.883Z,21.60
2023-03-03T17:23:44.405Z,20.30
2023-03-03T17:26:25.673Z,22.53
2023-03-03T17:29:09.086Z,18.70
2023-03-03T17:31:51.319Z,19.23
2023-03-03T17:34:30.956Z,20.07
2023-03-03T17:37:06.635Z,19.80
2023-03-03T17:39:46.541Z,19.87
2023-03-03T17:42:24.355Z,20.30
2023-03-03T17:45:01.087Z,20.13
2023-03-03T17:47:47.748Z,17.33
2023-03-03T17:50:29.412Z,16.83
2023-03-03T17:53:19.012Z,18.83
2023-03-03T17:56:02.002Z,20.00
2023-03-03T17:58:53.348Z,20.80
2023-03-03T18:01:31.816Z,18.87
2023-03-03T18:04:19.828Z,21.40
2023-03-03T18:07:04.132Z,16.67
2023-03-03T18:09:42.914Z,18.90
2023-03-03T18:12:19.847Z,19.30
2023-03-03T18:15:09.783Z,19.87
2023-03-03T18:17:51.170Z,23.17
2023-03-03T18:20:39.570Z,19.00
2023-03-03T18:23:34.059Z,18.87
2023-03-03T18:26:30.244Z,21.07
2023-03-03T18:29:21.394Z,20.43
2023-03-03T18:32:05.599Z,23.93
2023-03-03T18:34:42.345Z,18.63
2023-03-03T18:37:37.010Z,21.00
2023-03-03T18:40:28.290Z,22.33
2023-03-03T18:43:22.458Z,21.70
2023-03-03T18:45:57.939Z,20.77
2023-03-03T18:48:50.381Z,21.93
2023-03-03T18:51:43.828Z,24.30
2023-03-03T18:54:30.550Z,20.53
2023-03-03T18:57:14.893Z,18.83
2023-03-03T18:59:56.921Z,20.90
2023-03-03T19:02:37.888Z,22.40
2023-03-03T19:05:19.449Z,22.57
2023-03-03T19:07:54.310Z,22.17
2023-03-03T19:10:46.745Z,20.77
2023-03-03T19:13:41.235Z,23.87
2023-03-03T19:16:30.514Z,22.60
2023-03-03T19:19:09.474Z,18.67
2023-03-03T19:21:43.820Z,23.63
2023-03-03T19:24:28.621Z,20.43
2023-03-03T19:27:14.899Z,17.27
2023-03-03T19:30:04.492Z,19.13
2023-03-03T19:32:43.801Z,23.07
2023-03-03T19:35:26.583Z,23.13
2023-03-03T19:38:04.197Z,24.03
2023-03-03T19:40:43.622Z,20.83
2023-03-03T19:43:21.113Z,21.30
2023-03-03T19:46:04.550Z,21.63
2023-03-03T19:48:41.320Z,23.27
2023-03-03T19:51:17.084Z,21.73
2023-03-03T19:53:54.458Z,21.67
2023-03-03T19:56:33.388Z,20.97
2023-03-03T19:59:16.711Z,21.90
2023-03-03T20:01:54.519Z,22.50
2023-03-03T20:04:32.581Z,21.27
2023-03-03T20:07:11.881Z,22.43
2023-03-03T20:09:49.626Z,13.77
2023-03-03T20:12:39.691Z,19.57
2023-03-03T20:15:15.098Z,23.30
2023-03-03T20:17:54.363Z,19.53
2023-03-03T20:20:45.078Z,17.93
2023-03-03T20:23:22.087Z,22.07
2023-03-03T20:26:00.016Z,19.00
2023-03-03T20:28:50.447Z,13.60
2023-03-03T20:31:27.772Z,16.37
2023-03-03T20:34:05.370Z,18.93
2023-03-03T20:36:43.172Z,13.50
2023-03-03T20:39:19.842Z,12.73
2023-03-03T20:41:59.653Z,12.17
2023-03-03T20:44:40.317Z,8.80
2023-03-03T20:47:19.216Z,13.87
2023-03-03T20:50:04.546Z,12.77
2023-03-03T20:52:41.620Z,10.57
2023-03-03T20:55:18.835Z,9.47
2023-03-03T20:57:54.888Z,11.83
2023-03-03T21:00:30.618Z,11.47
2023-03-03T21:03:07.758Z,8.77
2023-03-03T21:05:55.640Z,9.57
2023-03-03T21:08:49.781Z,10.43
2023-03-03T21:11:40.962Z,11.40
2023-03-03T21:14:17.732Z,16.93
2023-03-03T21:16:51.174Z,12.27
2023-03-03T21:19:24.880Z,9.67
2023-03-03T21:22:00.133Z,13.57
2023-03-03T21:24:53.908Z,12.93
2023-03-03T21:27:32.168Z,14.53
2023-03-03T21:30:09.251Z,15.27
2023-03-03T21:32:43.320Z,11.97
2023-03-03T21:35:25.987Z,11.10
2023-03-03T21:37:58.778Z,20.67
2023-03-03T21:40:32.546Z,14.00
2023-03-03T21:43:06.675Z,26.57
2023-03-03T21:45:41.292Z,14.67
2023-03-03T21:48:14.213Z,13.73
2023-03-03T21:50:48.849Z,19.67
2023-03-03T21:53:26.209Z,16.93
2023-03-03T21:56:01.028Z,16.23
2023-03-03T21:58:35.152Z,19.20
2023-03-03T22:01:08.574Z,15.17
2023-03-03T22:03:41.264Z,19.13
2023-03-03T22:06:14.024Z,16.67
2023-03-03T22:08:49.308Z,17.03
2023-03-03T22:11:22.185Z,15.70
2023-03-03T22:13:56.319Z,15.57
2023-03-03T22:16:31.762Z,16.47
2023-03-03T22:19:05.129Z,17.10
2023-03-03T22:21:38.820Z,16.63
2023-03-03T22:24:11.578Z,14.87
2023-03-03T22:26:44.341Z,21.33
2023-03-03T22:29:25.294Z,19.87
2023-03-03T22:31:57.999Z,20.57
2023-03-03T22:34:30.829Z,16.23
2023-03-03T22:37:03.590Z,19.30
2023-03-03T22:39:36.428Z,18.47
2023-03-03T22:42:10.161Z,17.77
2023-03-03T22:44:45.918Z,22.30
2023-03-03T22:47:21.266Z,15.03
2023-03-03T22:49:53.980Z,18.67
2023-03-03T22:52:26.740Z,18.13
2023-03-03T22:54:59.430Z,13.30
2023-03-03T22:57:32.271Z,19.07
2023-03-03T23:00:07.865Z,14.90
2023-03-03T23:02:41.057Z,15.73
2023-03-03T23:05:13.859Z,11.53
2023-03-03T23:07:46.729Z,17.60
2023-03-03T23:10:22.410Z,21.23
2023-03-03T23:12:55.401Z,22.90
2023-03-03T23:15:29.541Z,21.50
2023-03-03T23:18:02.486Z,20.87
2023-03-03T23:20:35.302Z,23.50
2023-03-03T23:23:08.195Z,24.50
2023-03-03T23:25:40.837Z,25.30
2023-03-03T23:28:15.534Z,26.87
2023-03-03T23:30:52.021Z,26.20
2023-03-03T23:33:25.015Z,33.03
2023-03-03T23:35:57.683Z,22.27
2023-03-03T23:38:30.478Z,31.97
2023-03-03T23:41:03.325Z,33.80
2023-03-03T23:43:37.600Z,30.07
2023-03-03T23:46:11.705Z,32.40
2023-03-03T23:48:46.995Z,33.77
2023-03-03T23:51:19.994Z,32.17
2023-03-03T23:53:52.823Z,24.67
2023-03-03T23:56:25.466Z,31.57
2023-03-03T23:58:58.219Z,32.03
